Time;durP1;ratioP1;P1;durP2;ratioP2;P2;SDS_P1;SDS_P2;PMS_P1;PMS_P2;Temp;Humidity;BMP_temperature;BMP_pressure;BME280_temperature;BME280_humidity;BME280_pressure;Samples;Min_cycle;Max_cycle;Signal;HPM_P1;HPM_P2
2022/10/08 00:00:15;;;;;;;9.53;3.20;;;14.40;76.80;;;;;;5036356;28;20479;-70
2022/10/08 00:02:43;;;;;;;11.03;3.23;;;14.40;76.80;;;;;;5035662;28;20458;-70
2022/10/08 00:05:10;;;;;;;12.20;2.90;;;14.40;76.80;;;;;;5036124;28;20462;-71
2022/10/08 00:07:37;;;;;;;10.57;3.37;;;14.40;76.90;;;;;;5036470;28;20457;-71
2022/10/08 00:10:06;;;;;;;13.17;3.40;;;14.40;77.10;;;;;;5036429;28;20507;-71
2022/10/08 00:12:35;;;;;;;13.13;3.10;;;14.40;77.10;;;;;;5036847;28;20523;-71
2022/10/08 00:15:02;;;;;;;18.50;3.40;;;14.50;77.20;;;;;;5036539;28;20461;-70
2022/10/08 00:17:28;;;;;;;11.33;3.50;;;14.40;76.80;;;;;;5036515;28;20453;-70
2022/10/08 00:19:57;;;;;;;10.77;2.93;;;14.40;77.10;;;;;;5036058;28;20506;-70
2022/10/08 00:22:25;;;;;;;8.33;2.93;;;14.40;77.10;;;;;;5036459;28;20490;-71
2022/10/08 00:24:54;;;;;;;18.77;4.17;;;14.40;77.20;;;;;;5036753;28;20462;-71
2022/10/08 00:27:22;;;;;;;4.90;2.40;;;14.40;77.20;;;;;;5036089;28;20469;-71
2022/10/08 00:29:50;;;;;;;11.37;3.20;;;14.30;77.30;;;;;;5035881;28;20577;-71
2022/10/08 00:32:18;;;;;;;12.57;2.93;;;14.30;77.60;;;;;;5035671;28;20485;-71
2022/10/08 00:34:45;;;;;;;18.23;3.20;;;14.30;77.50;;;;;;5042824;28;20497;-68
2022/10/08 00:37:14;;;;;;;10.00;3.50;;;14.30;77.60;;;;;;5046601;28;20860;-68
2022/10/08 00:39:41;;;;;;;14.97;3.70;;;14.30;77.90;;;;;;5045801;28;20485;-68
2022/10/08 00:42:08;;;;;;;13.33;2.97;;;14.30;78.10;;;;;;5046263;28;20446;-68
2022/10/08 00:44:53;;;;;;;16.90;3.67;;;14.20;78.00;;;;;;5045749;28;20460;-68
2022/10/08 00:47:26;;;;;;;10.00;3.10;;;14.20;78.00;;;;;;5045742;28;20439;-67
2022/10/08 00:49:56;;;;;;;8.57;4.57;;;14.20;78.20;;;;;;5045883;28;20493;-67
2022/10/08 00:52:27;;;;;;;14.27;4.00;;;14.20;78.50;;;;;;5046393;28;20489;-67
2022/10/08 00:54:56;;;;;;;11.97;3.00;;;14.20;78.50;;;;;;5045551;28;20446;-68
2022/10/08 00:57:24;;;;;;;8.60;2.67;;;14.20;78.60;;;;;;5046084;28;20454;-68
2022/10/08 00:59:51;;;;;;;11.43;2.93;;;14.20;78.60;;;;;;5045694;28;20887;-68
2022/10/08 01:02:18;;;;;;;7.20;2.90;;;14.20;78.60;;;;;;5045501;28;21015;-68
2022/10/08 01:04:46;;;;;;;12.93;3.03;;;14.20;78.70;;;;;;5043350;28;21045;-68
2022/10/08 01:07:18;;;;;;;12.13;3.00;;;14.20;78.60;;;;;;5039414;28;20453;-67
2022/10/08 01:09:55;;;;;;;10.90;2.90;;;14.20;78.70;;;;;;5042307;28;20481;-67
2022/10/08 01:12:30;;;;;;;9.43;3.23;;;14.20;79.00;;;;;;5044690;28;20447;-67
2022/10/08 01:14:59;;;;;;;12.50;2.23;;;14.10;78.90;;;;;;5045353;28;20452;-67
2022/10/08 01:17:33;;;;;;;10.20;2.70;;;14.10;79.10;;;;;;5045296;28;20555;-68
2022/10/08 01:20:32;;;;;;;13.67;3.17;;;14.10;79.20;;;;;;5045972;28;20473;-68
2022/10/08 01:23:38;;;;;;;10.70;2.70;;;14.10;79.60;;;;;;5040002;28;20438;-68
2022/10/08 01:26:19;;;;;;;6.83;2.17;;;14.00;79.80;;;;;;5045448;28;20436;-68
2022/10/08 01:28:52;;;;;;;11.07;2.70;;;14.10;80.00;;;;;;5044328;28;20445;-68
2022/10/08 01:31:23;;;;;;;7.07;2.47;;;14.00;79.90;;;;;;5044329;28;20437;-68
2022/10/08 01:33:54;;;;;;;10.93;2.93;;;14.10;80.10;;;;;;5045659;28;20488;-68
2022/10/08 01:36:22;;;;;;;10.40;3.27;;;14.00;79.90;;;;;;5043885;28;20445;-68
2022/10/08 01:38:54;;;;;;;11.60;3.40;;;14.00;80.10;;;;;;5042346;28;20476;-68
2022/10/08 01:41:24;;;;;;;9.00;2.80;;;14.00;80.40;;;;;;5043188;28;20439;-68
2022/10/08 01:43:59;;;;;;;7.03;2.90;;;14.00;80.50;;;;;;5043247;28;20446;-68
2022/10/08 01:46:30;;;;;;;10.93;2.97;;;13.90;80.80;;;;;;5044253;28;20445;-68
2022/10/08 01:49:01;;;;;;;8.30;2.83;;;13.90;80.90;;;;;;5043976;28;20478;-68
2022/10/08 01:51:31;;;;;;;8.90;2.97;;;13.90;80.90;;;;;;5044297;28;20445;-68
2022/10/08 01:54:01;;;;;;;12.20;2.63;;;13.90;81.10;;;;;;5043241;28;20994;-68
2022/10/08 01:56:31;;;;;;;8.40;2.17;;;14.00;81.40;;;;;;5043881;28;20524;-68
2022/10/08 01:59:04;;;;;;;8.23;3.03;;;14.00;81.40;;;;;;5044519;28;20521;-68
2022/10/08 02:01:38;;;;;;;7.77;2.53;;;14.00;81.50;;;;;;5044059;28;20442;-68
2022/10/08 02:06:55;;;;;;;8.40;2.90;;;14.00;81.50;;;;;;5044688;28;20416;-68
2022/10/08 02:09:23;;;;;;;9.27;2.60;;;14.00;81.50;;;;;;5044006;28;20461;-68
2022/10/08 02:11:50;;;;;;;10.23;2.60;;;13.90;81.60;;;;;;5044654;28;20478;-67
2022/10/08 02:14:19;;;;;;;11.53;3.50;;;14.00;81.80;;;;;;5044772;28;20485;-68
2022/10/08 02:16:52;;;;;;;11.53;2.63;;;14.00;82.00;;;;;;5043598;28;20458;-67
2022/10/08 02:19:29;;;;;;;15.53;4.13;;;14.00;82.10;;;;;;5044985;28;20477;-67
2022/10/08 02:21:59;;;;;;;12.17;3.00;;;14.00;82.30;;;;;;5042755;28;20435;-67
2022/10/08 02:24:31;;;;;;;11.30;2.47;;;14.00;82.30;;;;;;5044591;28;20436;-67
2022/10/08 02:27:02;;;;;;;10.17;2.90;;;13.90;82.40;;;;;;5044318;28;20433;-67
2022/10/08 02:29:36;;;;;;;13.87;2.80;;;13.90;82.70;;;;;;5044562;28;21049;-67
2022/10/08 02:32:07;;;;;;;12.90;2.37;;;13.90;82.80;;;;;;5045226;28;20450;-67
2022/10/08 02:34:38;;;;;;;11.03;3.07;;;13.90;83.10;;;;;;5044059;28;20484;-67
2022/10/08 02:37:10;;;;;;;11.63;2.57;;;13.90;83.30;;;;;;5044110;28;20419;-67
2022/10/08 02:39:40;;;;;;;11.43;2.63;;;13.90;83.60;;;;;;5044778;28;20492;-67
2022/10/08 02:42:11;;;;;;;12.23;2.70;;;13.90;84.00;;;;;;5044185;28;20445;-67
2022/10/08 02:44:48;;;;;;;7.90;2.90;;;13.90;84.60;;;;;;5043801;28;20447;-67
2022/10/08 02:47:19;;;;;;;8.30;2.20;;;13.90;85.00;;;;;;5044046;28;20532;-67
2022/10/08 02:49:52;;;;;;;8.87;2.73;;;13.80;85.20;;;;;;5044543;28;20503;-67
2022/10/08 02:52:21;;;;;;;10.60;2.83;;;13.80;85.80;;;;;;5044113;28;20442;-67
2022/10/08 02:54:50;;;;;;;8.60;2.77;;;13.80;86.40;;;;;;5044129;28;20495;-68
2022/10/08 02:57:21;;;;;;;4.97;2.23;;;13.80;87.00;;;;;;5044029;28;20452;-67
2022/10/08 02:59:50;;;;;;;10.50;2.50;;;13.80;89.00;;;;;;5044788;28;20468;-67
2022/10/08 03:02:26;;;;;;;11.07;2.50;;;13.70;88.50;;;;;;5045730;28;20448;-67
2022/10/08 03:05:00;;;;;;;10.23;2.67;;;13.70;89.30;;;;;;5044841;28;20497;-67
2022/10/08 03:07:29;;;;;;;9.47;2.50;;;13.70;89.50;;;;;;5042275;28;20437;-68
2022/10/08 03:09:58;;;;;;;6.60;2.80;;;13.70;90.00;;;;;;5040803;28;20481;-68
2022/10/08 03:12:25;;;;;;;7.30;2.23;;;13.70;90.20;;;;;;5044098;28;20453;-68
2022/10/08 03:14:53;;;;;;;7.40;2.30;;;13.80;90.40;;;;;;5044566;28;20491;-68
2022/10/08 03:17:25;;;;;;;9.73;1.90;;;13.70;90.30;;;;;;5041540;28;20471;-68
2022/10/08 03:19:52;;;;;;;8.93;2.23;;;13.70;90.50;;;;;;5042745;28;20474;-68
2022/10/08 03:22:19;;;;;;;9.07;2.60;;;13.70;90.60;;;;;;5047583;28;20450;-68
2022/10/08 03:24:45;;;;;;;16.20;3.77;;;13.60;90.80;;;;;;5047814;28;20458;-68
2022/10/08 03:27:13;;;;;;;9.43;2.57;;;13.70;91.00;;;;;;5047699;28;20448;-68
2022/10/08 03:29:40;;;;;;;14.80;2.93;;;13.70;91.20;;;;;;5046925;28;20473;-68
2022/10/08 03:32:08;;;;;;;9.33;2.13;;;13.60;91.30;;;;;;5046708;28;20449;-68
2022/10/08 03:34:35;;;;;;;8.63;2.37;;;13.60;92.10;;;;;;5047544;28;20478;-68
2022/10/08 03:37:01;;;;;;;14.63;2.87;;;13.60;92.50;;;;;;5045735;28;20444;-68
2022/10/08 03:39:28;;;;;;;7.27;2.40;;;13.50;93.10;;;;;;5045376;28;20468;-68
2022/10/08 03:41:55;;;;;;;11.77;3.17;;;13.50;93.70;;;;;;5045920;28;20867;-68
2022/10/08 03:44:22;;;;;;;8.30;2.53;;;13.60;94.10;;;;;;5047245;28;20453;-68
2022/10/08 03:46:48;;;;;;;6.67;2.67;;;13.60;94.40;;;;;;5047854;28;20965;-68
2022/10/08 03:49:16;;;;;;;5.17;2.40;;;13.60;94.70;;;;;;5047257;28;20466;-68
2022/10/08 03:51:43;;;;;;;9.13;2.83;;;13.60;95.20;;;;;;5046637;28;20456;-68
2022/10/08 03:54:10;;;;;;;10.27;2.50;;;13.60;95.70;;;;;;5046521;28;20493;-68
2022/10/08 03:56:36;;;;;;;7.43;2.43;;;13.50;96.40;;;;;;5047295;28;20459;-68
2022/10/08 03:59:03;;;;;;;11.23;2.87;;;13.50;96.50;;;;;;5047156;28;20472;-68
2022/10/08 04:01:30;;;;;;;10.67;3.60;;;13.50;97.00;;;;;;5048174;28;20458;-68
2022/10/08 04:03:57;;;;;;;11.10;4.20;;;13.50;97.30;;;;;;5048265;28;20446;-68
2022/10/08 04:06:25;;;;;;;16.27;3.30;;;13.50;97.50;;;;;;5049565;28;20463;-67
2022/10/08 04:08:52;;;;;;;6.43;2.70;;;13.50;97.80;;;;;;5049537;28;20456;-67
2022/10/08 04:11:21;;;;;;;7.67;2.67;;;13.50;98.00;;;;;;5050379;28;20539;-67
2022/10/08 04:13:48;;;;;;;6.73;2.70;;;13.50;98.20;;;;;;5049105;28;20491;-68
2022/10/08 04:16:16;;;;;;;10.10;3.13;;;13.50;98.40;;;;;;5049579;28;20468;-68
2022/10/08 04:18:44;;;;;;;11.47;3.27;;;13.50;98.30;;;;;;5047111;28;20517;-68
2022/10/08 04:21:13;;;;;;;8.73;3.73;;;13.50;98.50;;;;;;5044848;28;20465;-67
2022/10/08 04:23:42;;;;;;;8.47;3.20;;;13.50;98.70;;;;;;5038548;28;20440;-66
2022/10/08 04:26:11;;;;;;;11.10;4.03;;;13.50;98.90;;;;;;5045124;28;20451;-67
2022/10/08 04:28:38;;;;;;;7.90;2.97;;;13.50;99.00;;;;;;5048302;28;20938;-67
2022/10/08 04:31:07;;;;;;;5.73;3.37;;;13.50;99.10;;;;;;5048243;28;20500;-67
2022/10/08 04:33:35;;;;;;;6.80;3.33;;;13.50;99.10;;;;;;5047625;28;20486;-67
2022/10/08 04:36:07;;;;;;;12.37;3.83;;;13.50;99.20;;;;;;5048820;28;20462;-67
2022/10/08 04:38:34;;;;;;;5.97;3.73;;;13.50;99.30;;;;;;5048763;28;20483;-67
2022/10/08 04:41:04;;;;;;;10.23;4.50;;;13.50;99.10;;;;;;5047492;28;20855;-67
2022/10/08 04:43:32;;;;;;;8.63;3.80;;;13.50;99.50;;;;;;5046140;28;20444;-67
2022/10/08 04:45:59;;;;;;;8.40;3.70;;;13.40;99.60;;;;;;5045505;28;20464;-67
2022/10/08 04:48:25;;;;;;;8.20;3.63;;;13.50;99.70;;;;;;5046352;28;20989;-67
2022/10/08 04:50:56;;;;;;;7.97;3.30;;;13.50;99.90;;;;;;5046344;28;20471;-67
2022/10/08 04:53:24;;;;;;;13.47;4.90;;;13.40;99.90;;;;;;5046550;28;20437;-67
2022/10/08 04:55:51;;;;;;;11.07;4.80;;;13.40;99.90;;;;;;5046263;28;20455;-67
2022/10/08 04:58:19;;;;;;;6.80;3.80;;;13.40;99.90;;;;;;5046153;28;20448;-67
2022/10/08 05:00:46;;;;;;;7.20;3.77;;;13.40;99.90;;;;;;5046303;28;20475;-67
2022/10/08 05:03:12;;;;;;;10.47;6.63;;;13.40;99.90;;;;;;5045970;28;20452;-67
2022/10/08 05:05:40;;;;;;;6.73;4.70;;;13.50;99.90;;;;;;5045659;28;20448;-67
2022/10/08 05:08:06;;;;;;;11.47;5.60;;;13.50;99.90;;;;;;5045000;28;20462;-67
2022/10/08 05:10:33;;;;;;;12.40;6.20;;;13.50;99.90;;;;;;5046101;28;20481;-67
2022/10/08 05:13:00;;;;;;;11.57;5.70;;;13.50;99.90;;;;;;5044621;28;20477;-68
2022/10/08 05:15:29;;;;;;;15.30;6.80;;;13.50;99.90;;;;;;5045375;28;20480;-68
2022/10/08 05:17:56;;;;;;;10.43;5.87;;;13.50;99.90;;;;;;5045852;28;20447;-68
2022/10/08 05:20:22;;;;;;;11.03;4.90;;;13.50;99.90;;;;;;5045513;28;20468;-68
2022/10/08 05:22:49;;;;;;;11.20;5.50;;;13.50;99.90;;;;;;5045178;28;20451;-68
2022/10/08 05:25:16;;;;;;;8.13;5.33;;;13.50;99.90;;;;;;5046690;28;20450;-68
2022/10/08 05:27:43;;;;;;;11.97;5.87;;;13.50;99.90;;;;;;5046605;28;20446;-68
2022/10/08 05:30:10;;;;;;;8.40;5.77;;;13.40;99.90;;;;;;5046344;28;20470;-68
2022/10/08 05:32:39;;;;;;;10.33;5.40;;;13.40;99.90;;;;;;5046125;28;20463;-68
2022/10/08 05:35:06;;;;;;;10.60;6.47;;;13.40;99.90;;;;;;5044322;28;20489;-68
2022/10/08 05:37:33;;;;;;;10.93;5.80;;;13.40;99.90;;;;;;5044032;28;20461;-68
2022/10/08 05:40:00;;;;;;;13.00;5.90;;;13.40;99.90;;;;;;5044844;28;20473;-68
2022/10/08 05:42:26;;;;;;;7.80;4.77;;;13.40;99.90;;;;;;5044996;28;20456;-68
2022/10/08 05:44:53;;;;;;;10.87;4.90;;;13.40;99.90;;;;;;5044752;28;20464;-68
2022/10/08 05:47:20;;;;;;;8.93;5.57;;;13.40;99.90;;;;;;5044662;28;20432;-68
2022/10/08 05:49:48;;;;;;;10.97;5.63;;;13.30;99.90;;;;;;5045209;28;20502;-68
2022/10/08 05:52:15;;;;;;;9.53;4.80;;;13.40;99.90;;;;;;5044376;28;20459;-68
2022/10/08 05:54:42;;;;;;;12.10;5.43;;;13.40;99.90;;;;;;5044467;28;20493;-68
2022/10/08 05:57:09;;;;;;;8.07;4.57;;;13.40;99.90;;;;;;5044643;28;20450;-68
2022/10/08 05:59:35;;;;;;;10.90;5.23;;;13.40;99.90;;;;;;5044738;28;20458;-68
2022/10/08 06:02:02;;;;;;;10.67;6.17;;;13.40;99.90;;;;;;5046132;28;20455;-68
2022/10/08 06:04:29;;;;;;;9.03;5.30;;;13.40;99.90;;;;;;5044051;28;20455;-68
2022/10/08 06:06:57;;;;;;;9.67;5.97;;;13.40;99.90;;;;;;5044769;28;20464;-68
2022/10/08 06:09:23;;;;;;;7.23;5.03;;;13.40;99.90;;;;;;5043099;28;20468;-68
2022/10/08 06:11:50;;;;;;;8.67;5.80;;;13.40;99.90;;;;;;5041434;28;20924;-68
2022/10/08 06:14:19;;;;;;;9.47;5.03;;;13.40;99.90;;;;;;5041618;28;20485;-68
2022/10/08 06:16:45;;;;;;;8.03;6.10;;;13.40;99.90;;;;;;5041608;28;20773;-68
2022/10/08 06:19:12;;;;;;;11.50;6.93;;;13.40;99.90;;;;;;5042405;28;20588;-68
2022/10/08 06:21:39;;;;;;;8.17;7.37;;;13.40;99.90;;;;;;5040234;28;20451;-68
2022/10/08 06:24:10;;;;;;;8.23;7.13;;;13.40;99.90;;;;;;5037123;28;20480;-68
2022/10/08 06:26:39;;;;;;;12.07;8.33;;;13.40;99.90;;;;;;5042106;28;20441;-68
2022/10/08 06:29:07;;;;;;;13.90;7.90;;;13.50;99.90;;;;;;5044717;28;20469;-68
2022/10/08 06:31:35;;;;;;;10.67;7.93;;;13.50;99.90;;;;;;5043699;28;20449;-68
2022/10/08 06:34:03;;;;;;;16.43;8.73;;;13.50;99.90;;;;;;5043777;28;20456;-68
2022/10/08 06:36:29;;;;;;;16.90;9.90;;;13.50;99.90;;;;;;5043403;28;20837;-68
2022/10/08 06:38:57;;;;;;;11.23;9.17;;;13.60;99.90;;;;;;5039871;28;20455;-67
2022/10/08 06:41:29;;;;;;;17.00;8.80;;;13.60;99.90;;;;;;5039628;28;20442;-67
2022/10/08 06:43:56;;;;;;;15.00;9.90;;;13.60;99.90;;;;;;5040647;28;20442;-67
2022/10/08 06:46:22;;;;;;;11.80;9.20;;;13.70;99.90;;;;;;5040473;28;20461;-67
2022/10/08 06:48:49;;;;;;;14.00;9.73;;;13.70;99.90;;;;;;5045929;28;20452;-68
2022/10/08 06:51:17;;;;;;;17.70;10.97;;;13.80;99.90;;;;;;5053711;28;20448;-68
2022/10/08 06:53:50;;;;;;;17.93;11.43;;;13.80;99.90;;;;;;5050629;28;20442;-68
2022/10/08 06:56:17;;;;;;;13.00;11.70;;;13.80;99.90;;;;;;5047331;28;20470;-68
2022/10/08 06:58:46;;;;;;;16.00;11.93;;;13.80;99.90;;;;;;5047102;28;20491;-68
2022/10/08 07:01:14;;;;;;;15.70;12.73;;;13.80;99.90;;;;;;5046863;28;20540;-68
2022/10/08 07:03:41;;;;;;;18.57;12.70;;;13.90;99.90;;;;;;5046693;28;20528;-68
2022/10/08 07:06:11;;;;;;;18.77;12.50;;;13.90;99.90;;;;;;5046111;28;20444;-69
2022/10/08 07:08:38;;;;;;;22.10;12.47;;;13.90;99.90;;;;;;5047044;28;20450;-69
2022/10/08 07:11:07;;;;;;;18.13;14.93;;;13.90;99.90;;;;;;5045873;28;20475;-68
2022/10/08 07:13:34;;;;;;;16.93;13.03;;;13.90;99.90;;;;;;5046854;28;20839;-68
2022/10/08 07:16:04;;;;;;;18.10;13.97;;;14.00;99.90;;;;;;5046499;28;20484;-68
2022/10/08 07:18:31;;;;;;;24.47;13.87;;;13.90;99.90;;;;;;5045988;28;20456;-68
2022/10/08 07:20:58;;;;;;;25.10;15.20;;;13.90;99.90;;;;;;5046640;28;20489;-68
2022/10/08 07:23:25;;;;;;;25.53;14.33;;;13.90;99.90;;;;;;5047307;28;20453;-68
2022/10/08 07:25:56;;;;;;;20.30;15.60;;;14.00;99.90;;;;;;5047050;28;20457;-68
2022/10/08 07:28:24;;;;;;;16.23;14.23;;;14.10;99.90;;;;;;5047711;28;20487;-69
2022/10/08 07:30:51;;;;;;;25.53;14.83;;;14.20;99.90;;;;;;5045787;28;20992;-69
2022/10/08 07:33:19;;;;;;;20.70;12.70;;;14.30;99.90;;;;;;5045144;28;20453;-69
2022/10/08 07:35:47;;;;;;;19.20;12.77;;;14.30;99.90;;;;;;5044620;28;20479;-69
2022/10/08 07:38:17;;;;;;;23.23;11.57;;;14.20;99.90;;;;;;5040798;28;20462;-69
2022/10/08 07:40:44;;;;;;;17.03;13.53;;;14.20;99.90;;;;;;5039793;28;20473;-69
2022/10/08 07:43:10;;;;;;;18.60;14.10;;;14.30;99.90;;;;;;5045042;28;20469;-68
2022/10/08 07:45:42;;;;;;;20.90;13.97;;;14.20;99.90;;;;;;5043438;28;20453;-69
2022/10/08 07:48:09;;;;;;;23.17;12.80;;;14.20;99.90;;;;;;5044083;28;20441;-69
2022/10/08 07:50:37;;;;;;;15.70;13.70;;;14.30;99.90;;;;;;5048778;28;20485;-68
2022/10/08 07:53:04;;;;;;;16.23;12.03;;;14.40;99.90;;;;;;5047588;28;20450;-68
2022/10/08 07:55:31;;;;;;;15.27;11.67;;;14.60;99.90;;;;;;5044385;28;20847;-69
2022/10/08 07:57:57;;;;;;;16.30;11.47;;;14.70;99.90;;;;;;5042970;28;20453;-69
2022/10/08 08:00:24;;;;;;;15.40;11.20;;;14.80;99.90;;;;;;5042062;28;21097;-69
2022/10/08 08:02:51;;;;;;;18.63;10.77;;;14.90;99.90;;;;;;5043784;28;20452;-69
2022/10/08 08:05:18;;;;;;;11.90;10.10;;;14.90;99.70;;;;;;5043006;28;20829;-69
2022/10/08 08:07:46;;;;;;;17.20;10.77;;;15.00;99.60;;;;;;5041696;28;20484;-69
2022/10/08 08:10:12;;;;;;;21.93;11.07;;;15.00;99.20;;;;;;5041364;28;20489;-69
2022/10/08 08:12:39;;;;;;;14.57;10.07;;;15.00;98.80;;;;;;5041248;28;20450;-69
2022/10/08 08:15:07;;;;;;;14.13;10.13;;;14.90;98.90;;;;;;5042574;28;20489;-69
2022/10/08 08:17:34;;;;;;;17.10;10.73;;;15.00;99.00;;;;;;5041980;28;20443;-69
2022/10/08 08:20:01;;;;;;;14.93;10.10;;;15.00;98.80;;;;;;5041869;28;20470;-68
2022/10/08 08:22:28;;;;;;;16.47;11.20;;;15.00;98.80;;;;;;5043553;28;20955;-69
2022/10/08 08:24:56;;;;;;;15.00;9.90;;;15.00;98.50;;;;;;5044095;28;20454;-69
2022/10/08 08:27:23;;;;;;;14.60;10.43;;;15.00;98.20;;;;;;5042333;28;20955;-68
2022/10/08 08:29:50;;;;;;;21.63;10.40;;;15.00;98.20;;;;;;5041283;28;20466;-69
2022/10/08 08:32:16;;;;;;;15.63;10.00;;;14.90;98.30;;;;;;5042417;28;20465;-68
2022/10/08 08:34:43;;;;;;;16.67;10.13;;;15.00;98.70;;;;;;5042232;28;20977;-68
2022/10/08 08:37:10;;;;;;;17.43;11.20;;;15.00;98.70;;;;;;5043650;28;20460;-68
2022/10/08 08:39:36;;;;;;;13.27;10.73;;;15.20;98.20;;;;;;5042336;28;20457;-68
2022/10/08 08:42:18;;;;;;;16.53;10.53;;;15.30;97.90;;;;;;5039754;28;20454;-69
2022/10/08 08:44:48;;;;;;;20.53;10.70;;;15.30;97.10;;;;;;5039018;28;20438;-69
2022/10/08 08:47:19;;;;;;;18.27;11.33;;;15.30;97.10;;;;;;5039344;28;20442;-69
2022/10/08 08:49:50;;;;;;;18.00;11.57;;;15.40;97.10;;;;;;5043784;28;20475;-68
2022/10/08 08:52:22;;;;;;;16.50;11.33;;;15.40;97.10;;;;;;5044786;28;20443;-68
2022/10/08 08:54:52;;;;;;;15.20;10.53;;;15.40;97.60;;;;;;5044611;28;20458;-69
2022/10/08 08:57:31;;;;;;;17.17;9.77;;;15.50;97.30;;;;;;5043019;28;20449;-68
2022/10/08 09:00:02;;;;;;;14.20;10.43;;;15.60;96.90;;;;;;5042870;28;20496;-68
2022/10/08 09:02:35;;;;;;;17.27;10.87;;;15.70;96.90;;;;;;5043075;28;20470;-68
2022/10/08 09:05:07;;;;;;;13.40;8.57;;;15.80;96.10;;;;;;5043111;28;20438;-68
2022/10/08 09:07:44;;;;;;;12.77;9.03;;;15.80;95.90;;;;;;5042733;28;20435;-68
2022/10/08 09:10:18;;;;;;;15.80;8.97;;;15.70;95.60;;;;;;5041906;28;20484;-69
2022/10/08 09:12:47;;;;;;;12.67;7.90;;;15.80;95.70;;;;;;5041232;28;20449;-69
2022/10/08 09:15:19;;;;;;;10.50;7.10;;;15.90;95.10;;;;;;5041660;28;20494;-68
2022/10/08 09:17:48;;;;;;;15.20;8.47;;;16.00;95.10;;;;;;5043055;28;20441;-70
2022/10/08 09:20:17;;;;;;;12.77;7.10;;;16.20;94.40;;;;;;5042682;28;20474;-69
2022/10/08 09:22:45;;;;;;;11.90;7.20;;;16.40;93.70;;;;;;5043166;28;20455;-68
2022/10/08 09:25:15;;;;;;;11.20;7.10;;;16.50;93.10;;;;;;5042855;28;20462;-68
2022/10/08 09:27:49;;;;;;;7.60;5.13;;;16.60;92.70;;;;;;5042263;28;20445;-69
2022/10/08 09:30:31;;;;;;;9.40;5.17;;;16.60;91.60;;;;;;5039660;28;20470;-69
2022/10/08 09:33:00;;;;;;;8.70;6.27;;;16.50;90.40;;;;;;5041518;28;20496;-68
2022/10/08 09:35:27;;;;;;;11.87;5.57;;;16.50;91.20;;;;;;5042519;28;20481;-68
2022/10/08 09:37:56;;;;;;;10.23;5.50;;;16.40;91.00;;;;;;5041695;28;20458;-68
2022/10/08 09:40:24;;;;;;;7.33;5.80;;;16.30;90.90;;;;;;5041995;28;20466;-68
2022/10/08 09:43:19;;;;;;;11.77;5.87;;;16.20;90.90;;;;;;5041601;28;20466;-68
2022/10/08 09:45:48;;;;;;;9.57;4.93;;;16.20;90.90;;;;;;5020231;28;20522;-67
2022/10/08 09:48:21;;;;;;;11.03;6.33;;;16.30;91.40;;;;;;5041751;28;20454;-67
2022/10/08 09:50:52;;;;;;;10.13;5.83;;;16.20;90.50;;;;;;5044500;28;20539;-66
2022/10/08 09:53:19;;;;;;;8.70;5.13;;;16.10;91.50;;;;;;5043723;28;20963;-66
2022/10/08 09:55:52;;;;;;;7.10;5.70;;;16.00;91.20;;;;;;5045670;28;20489;-67
2022/10/08 09:58:21;;;;;;;7.73;5.20;;;15.90;91.60;;;;;;5046170;28;20443;-67
2022/10/08 10:00:58;;;;;;;14.30;4.70;;;15.90;91.90;;;;;;5045835;28;20990;-67
2022/10/08 10:03:26;;;;;;;7.83;4.07;;;16.10;92.10;;;;;;5045677;28;20430;-68
2022/10/08 10:05:55;;;;;;;12.37;4.50;;;16.40;90.70;;;;;;5045621;28;20501;-67
2022/10/08 10:08:44;;;;;;;4.33;3.80;;;16.70;89.90;;;;;;5043824;28;20457;-67
2022/10/08 10:11:14;;;;;;;8.33;3.83;;;17.20;86.90;;;;;;5043914;28;20467;-68
2022/10/08 10:13:43;;;;;;;5.03;2.10;;;17.60;84.90;;;;;;5045466;28;20446;-68
2022/10/08 10:16:17;;;;;;;20.73;4.67;;;17.90;81.20;;;;;;5045993;28;20486;-68
2022/10/08 10:18:52;;;;;;;8.33;3.83;;;18.10;81.80;;;;;;5045713;28;20446;-68
2022/10/08 10:21:26;;;;;;;45.37;5.77;;;18.40;80.40;;;;;;5046617;28;20434;-68
2022/10/08 10:24:19;;;;;;;8.97;3.37;;;18.50;74.50;;;;;;5044876;28;20438;-68
2022/10/08 10:26:47;;;;;;;9.50;2.90;;;18.30;76.40;;;;;;5045122;28;20450;-68
2022/10/08 10:29:20;;;;;;;10.83;4.10;;;17.90;73.10;;;;;;5045504;28;20844;-68
2022/10/08 10:31:50;;;;;;;23.27;5.13;;;17.60;76.30;;;;;;5045049;28;20442;-67
2022/10/08 10:34:21;;;;;;;11.50;2.70;;;17.40;78.70;;;;;;5045305;28;20446;-67
2022/10/08 10:36:51;;;;;;;5.50;2.80;;;17.10;79.10;;;;;;5044588;28;20466;-67
2022/10/08 10:39:35;;;;;;;23.07;3.70;;;16.70;80.10;;;;;;5045877;28;20471;-68
2022/10/08 10:42:10;;;;;;;7.67;2.70;;;16.50;83.20;;;;;;5044286;28;20432;-70
2022/10/08 10:44:50;;;;;;;6.80;3.37;;;16.40;84.50;;;;;;5047875;28;20434;-70
2022/10/08 10:47:20;;;;;;;5.20;2.60;;;16.40;85.20;;;;;;5050596;28;20427;-70
2022/10/08 10:49:47;;;;;;;7.17;3.20;;;16.40;85.70;;;;;;5044678;28;20474;-67
2022/10/08 10:52:41;;;;;;;6.50;2.83;;;17.00;87.50;;;;;;5043723;28;20530;-68
2022/10/08 10:55:27;;;;;;;4.60;2.20;;;17.90;83.30;;;;;;5038803;28;20445;-68
2022/10/08 10:58:11;;;;;;;5.07;2.20;;;18.70;75.10;;;;;;5041653;28;20446;-69
2022/10/08 11:00:49;;;;;;;6.20;1.83;;;19.40;73.30;;;;;;5048239;28;20470;-69
2022/10/08 11:03:22;;;;;;;6.73;2.07;;;20.10;70.40;;;;;;5048770;28;20431;-69
2022/10/08 11:05:55;;;;;;;3.53;1.30;;;20.80;63.70;;;;;;5049361;28;20435;-69
2022/10/08 11:08:34;;;;;;;3.73;1.03;;;20.90;54.70;;;;;;5048971;28;20831;-68
2022/10/08 11:11:15;;;;;;;4.67;1.10;;;20.00;55.10;;;;;;5045768;28;20478;-68
2022/10/08 11:13:53;;;;;;;4.20;1.40;;;19.00;58.50;;;;;;5044597;28;20434;-67
2022/10/08 11:16:35;;;;;;;6.43;1.27;;;18.20;59.60;;;;;;5043982;28;20470;-67
2022/10/08 11:19:04;;;;;;;7.90;1.40;;;17.50;61.80;;;;;;5045288;28;20467;-67
2022/10/08 11:21:46;;;;;;;4.53;1.23;;;17.20;65.70;;;;;;5044246;28;20457;-67
2022/10/08 11:24:30;;;;;;;3.00;1.20;;;17.00;66.40;;;;;;5044235;28;20438;-67
2022/10/08 11:27:06;;;;;;;8.80;1.30;;;17.10;67.40;;;;;;5044814;28;20915;-67
2022/10/08 11:29:43;;;;;;;6.37;1.10;;;17.60;62.10;;;;;;5043397;28;20477;-68
2022/10/08 11:32:14;;;;;;;1.40;0.80;;;18.30;55.70;;;;;;5044953;28;20438;-74
2022/10/08 11:34:48;;;;;;;4.33;1.20;;;18.80;52.70;;;;;;5043212;28;20466;-68
2022/10/08 11:37:23;;;;;;;6.00;0.70;;;19.20;52.00;;;;;;5048160;28;20466;-69
2022/10/08 11:40:00;;;;;;;2.73;1.13;;;19.50;49.30;;;;;;5048187;28;20466;-69
2022/10/08 11:42:35;;;;;;;3.97;1.10;;;20.00;50.70;;;;;;5047912;28;20461;-69
2022/10/08 11:45:29;;;;;;;2.23;0.87;;;20.40;50.00;;;;;;5046975;28;20438;-69
2022/10/08 11:47:59;;;;;;;2.40;0.97;;;20.60;47.80;;;;;;5043633;28;20461;-69
2022/10/08 11:50:31;;;;;;;4.90;1.30;;;20.90;48.40;;;;;;5048615;28;20478;-68
2022/10/08 11:53:13;;;;;;;4.43;1.20;;;20.80;48.20;;;;;;5050225;28;20451;-68
2022/10/08 11:55:47;;;;;;;3.40;1.17;;;20.80;49.00;;;;;;5051852;28;20435;-69
2022/10/08 11:58:22;;;;;;;4.60;1.50;;;21.00;50.10;;;;;;5052345;28;20431;-72
2022/10/08 12:00:52;;;;;;;3.50;1.13;;;21.40;49.90;;;;;;5054150;28;20552;-70
2022/10/08 12:03:28;;;;;;;2.27;0.93;;;21.80;48.00;;;;;;5052777;28;20450;-68
2022/10/08 12:05:58;;;;;;;3.30;0.97;;;22.00;46.70;;;;;;5048461;28;20442;-69
2022/10/08 12:08:51;;;;;;;2.10;1.10;;;22.00;45.00;;;;;;5045392;28;20823;-69
2022/10/08 12:11:48;;;;;;;3.13;1.17;;;22.30;44.80;;;;;;5045447;28;20459;-69
2022/10/08 12:14:45;;;;;;;4.27;1.60;;;22.50;44.50;;;;;;5047076;28;20453;-69
2022/10/08 12:17:12;;;;;;;3.60;1.60;;;22.90;43.70;;;;;;5044743;28;20463;-69
2022/10/08 12:19:59;;;;;;;2.10;0.97;;;23.20;44.30;;;;;;5044482;28;20474;-69
2022/10/08 12:22:59;;;;;;;5.40;1.30;;;23.50;43.00;;;;;;5049648;28;20447;-68
2022/10/08 12:25:35;;;;;;;4.37;1.10;;;22.90;42.50;;;;;;5051521;28;20447;-70
2022/10/08 12:28:37;;;;;;;1.80;0.97;;;21.90;44.40;;;;;;5053041;28;20431;-70
2022/10/08 12:31:26;;;;;;;1.83;0.90;;;20.70;47.30;;;;;;5047431;28;20472;-69
2022/10/08 12:34:02;;;;;;;4.83;1.10;;;19.60;50.40;;;;;;5044694;28;20912;-69
2022/10/08 12:36:41;;;;;;;2.67;1.40;;;18.90;52.50;;;;;;5046348;28;20477;-70
2022/10/08 12:39:15;;;;;;;3.50;1.43;;;18.50;53.10;;;;;;5043917;28;20480;-69
2022/10/08 12:41:51;;;;;;;1.60;0.97;;;18.30;54.70;;;;;;5043243;28;20467;-69
2022/10/08 12:44:30;;;;;;;1.73;1.00;;;18.70;53.70;;;;;;5043689;28;20430;-69
2022/10/08 12:47:04;;;;;;;3.13;1.40;;;19.50;49.90;;;;;;5043146;28;20442;-68
2022/10/08 12:49:35;;;;;;;1.70;0.90;;;20.10;47.60;;;;;;5042526;28;20561;-68
2022/10/08 12:52:09;;;;;;;1.90;0.90;;;20.70;46.90;;;;;;5042666;28;20940;-70
2022/10/08 12:54:39;;;;;;;3.43;1.10;;;21.10;43.80;;;;;;5043005;28;20457;-69
2022/10/08 12:57:11;;;;;;;2.33;0.83;;;21.60;43.50;;;;;;5052445;28;20510;-70
2022/10/08 12:59:41;;;;;;;2.93;1.33;;;22.20;43.80;;;;;;5062684;28;20472;-69
2022/10/08 13:02:27;;;;;;;1.80;0.70;;;22.70;41.10;;;;;;5062290;28;20449;-70